• Join FlightAware (Why Join?)
  • Login
  • US Flag 
07:53AM EDT


 

Airport Tracker/Info


-or-


 

Live Flight TrackerFlight Track Log ✈ SWA1046 ✈ 05-May-2013 ✈ KOKC - KMDW

Flight Track Log - Related Links

Times and Time Zones

All times are in EDT time to prevent confusion due to time zone crossing. See the SWA1046 flight status page for this flight to view local times or setup timezone preferences in your user account.

Time Position Orientation Groundspeed Altitude Reporting Facility
EDT Latitude Longitude Course Direction KTS MPH feet Rate Location/Type
05:52PM 35.4372 -97.6097 15° North 184 212 3,500  Level Fort Worth Center
05:53PM 35.4644 -97.5383 65° Northeast 248 285 5,900 2,880 Climbing Fort Worth Center
05:54PM 35.4981 -97.4594 62° Northeast 274 315 9,700 3,120 Climbing Fort Worth Center
05:56PM 35.5725 -97.2903 62° Northeast 319 367 14,400 2,940 Climbing Kansas City Center
05:57PM 35.6175 -97.1836 63° Northeast 342 394 17,800 2,760 Climbing Kansas City Center
05:58PM 35.6653 -97.0706 62° Northeast 362 417 20,200 2,340 Climbing Kansas City Center
05:59PM 35.7161 -96.9508 62° Northeast 387 445 22,700 1,320 Climbing Kansas City Center
06:00PM 35.7672 -96.8272 63° Northeast 401 461 23,000 1,440 Climbing Kansas City Center
06:02PM 35.8121 -96.6514 72° East  Level FlightAware Approximate
06:02PM 35.8831 -96.5525 72° East 415 478 27,200  Level Kansas City Center
06:03PM 35.9389 -96.4158 63° Northeast 437 503 29,000 1,620 Climbing Kansas City Center
06:04PM 35.9958 -96.2786 63° Northeast 447 514 30,600 1,560 Climbing Kansas City Center
06:05PM 36.0544 -96.1375 63° Northeast 454 522 32,300 1,920 Climbing Kansas City Center
06:06PM 36.1122 -95.9961 63° Northeast 458 527 34,600 1,260 Climbing Kansas City Center
06:07PM 36.1794 -95.8306 63° Northeast 454 522 35,000 180 Climbing Kansas City Center
06:08PM 36.2372 -95.6939 62° Northeast 451 519 35,000 600 Level Kansas City Center
06:10PM 36.2911 -95.5575 61° Northeast  Level FlightAware Approximate
06:10PM 36.3664 -95.4339 61° Northeast 445 512 37,000  Level Kansas City Center
06:11PM 36.4331 -95.2981 59° Northeast 452 520 37,800 720 Climbing Kansas City Center
06:12PM 36.5006 -95.1581 59° Northeast 467 537 38,600 540 Climbing Kansas City Center
06:13PM 36.5756 -95.0019 59° Northeast 469 540 39,000 180 Climbing Kansas City Center
06:15PM 36.6400 -94.8656 59° Northeast 464 534 39,000  Level Kansas City Center
06:16PM 36.7047 -94.7292 59° Northeast 460 529 39,000  Level Kansas City Center
06:17PM 36.7692 -94.5936 59° Northeast 457 526 39,000  Level Kansas City Center
06:19PM 36.9644 -94.3633 43° Northeast 440 506 39,000  Level Kansas City Center
06:20PM 37.0556 -94.2622 42° Northeast 438 504 39,000  Level Kansas City Center
06:21PM 37.1461 -94.1606 42° Northeast 436 502 39,000  Level Kansas City Center
06:22PM 37.2292 -94.0678 42° Northeast 432 497 39,000  Level Kansas City Center
06:23PM 37.3178 -93.9692 41° Northeast 427 491 39,000  Level Kansas City Center
06:24PM 37.4231 -93.8500 42° Northeast 424 488 39,000  Level Kansas City Center
06:25PM 37.5092 -93.7506 42° Northeast 420 483 39,000  Level Kansas City Center
06:26PM 37.5978 -93.6506 42° Northeast 423 487 39,000  Level Kansas City Center
06:27PM 37.6856 -93.5500 42° Northeast 424 488 39,000  Level Kansas City Center
06:28PM 37.7756 -93.4486 42° Northeast 427 491 39,000  Level Kansas City Center
06:30PM 37.8998 -93.3121 41° Northeast  Level FlightAware Approximate
06:30PM 37.9522 -93.2469 41° Northeast 425 489 39,000  Level Kansas City Center
06:31PM 38.0378 -93.1475 42° Northeast 419 482 39,000  Level Kansas City Center
06:33PM 38.1583 -93.0252 39° Northeast  Level FlightAware Approximate
06:33PM 38.2281 -92.9292 39° Northeast 416 479 39,000  Level Kansas City Center
06:34PM 38.3142 -92.8283 43° Northeast 417 480 39,000  Level Kansas City Center
06:36PM 38.4883 -92.6242 43° Northeast 422 486 39,000  Level Kansas City Center
06:37PM 38.5753 -92.5214 43° Northeast 423 487 39,000  Level Kansas City Center
06:38PM 38.6619 -92.4183 43° Northeast 423 487 39,000  Level Kansas City Center
06:39PM 38.7483 -92.3150 43° Northeast 421 484 39,000  Level Kansas City Center
06:40PM 38.8361 -92.2103 43° Northeast 426 490 39,000  Level Kansas City Center
06:41PM 38.9239 -92.1056 43° Northeast 428 493 39,000  Level Kansas City Center
06:42PM 39.0294 -91.9797 43° Northeast 429 494 39,000  Level Kansas City Center
06:43PM 39.1156 -91.8767 43° Northeast 424 488 39,000  Level Kansas City Center
06:44PM 39.2006 -91.7739 43° Northeast 419 482 39,000 -120 Level Kansas City Center
06:45PM 39.2792 -91.6814 42° Northeast 419 482 38,800 -660 Descending Kansas City Center
06:46PM 39.3633 -91.5786 43° Northeast 419 482 37,700 -1,800 Descending Kansas City Center
06:48PM 39.4636 -91.4567 43° Northeast 414 476 35,200 -2,340 Descending Kansas City Center
06:49PM 39.5356 -91.3661 44° Northeast 411 473 33,000 -1,620 Descending Kansas City Center
06:50PM 39.6278 -91.2542 43° Northeast 408 470 32,000 -540 Descending Kansas City Center
06:51PM 39.7106 -91.1547 43° Northeast 407 468 32,000  Level Kansas City Center
06:52PM 39.7972 -91.0456 44° Northeast 410 472 32,000 -120 Level Kansas City Center
06:53PM 39.8744 -90.9483 44° Northeast 410 472 31,800 -540 Descending Kansas City Center
06:54PM 39.9589 -90.8450 43° Northeast 414 476 31,000 -420 Descending Kansas City Center
06:55PM 40.0567 -90.7183 45° Northeast 413 475 31,000  Level Kansas City Center
06:56PM 40.1328 -90.6058 48° Northeast 413 475 31,000  Level Kansas City Center
06:56PM 40.1478 -90.5822 50° Northeast 414 476 31,000  Level Chicago Center
06:58PM 40.2861 -90.3800 48° Northeast 415 478 31,000 -60 Level Kansas City Center
06:58PM 40.3156 -90.3333 50° Northeast 416 479 30,900 -660 Descending Chicago Center
06:59PM 40.3797 -90.2028 57° Northeast 424 488 30,100 -900 Descending Chicago Center
07:00PM 40.4469 -90.0714 56° Northeast 433 498 29,100 -1,020 Descending Chicago Center
07:01PM 40.5214 -89.9247 56° Northeast 435 501 28,100 -1,020 Descending Chicago Center
07:02PM 40.5875 -89.7922 57° Northeast 435 501 27,100 -1,020 Descending Chicago Center
07:03PM 40.6567 -89.6606 55° Northeast 436 502 26,100 -2,040 Descending Chicago Center
07:04PM 40.7372 -89.5439 48° Northeast 419 482 23,000 -3,300 Descending Chicago Center
07:05PM 40.8142 -89.4297 48° Northeast 418 481 19,300 -2,880 Descending Chicago Center
07:06PM 40.8892 -89.3178 48° Northeast 403 464 17,000 -1,140 Descending Chicago Center
07:07PM 40.9736 -89.1919 48° Northeast 383 441 17,000  Level Chicago Center
07:08PM 41.0406 -89.0925 48° Northeast 380 437 17,000 -960 Level Chicago Center
07:10PM 41.1086 -88.9881 49° Northeast 375 432 15,100 -2,400 Descending Chicago Center
07:11PM 41.1883 -88.8658 49° Northeast 366 421 12,100 -2,280 Descending Chicago Center
07:12PM 41.2519 -88.7703 48° Northeast 349 402 10,500 -1,140 Descending Chicago Center
07:13PM 41.3067 -88.6853 49° Northeast 307 353 9,800 -1,080 Descending Chicago Center
07:14PM 41.3578 -88.6086 48° Northeast 281 323 8,300 -1,440 Descending Chicago Center
07:15PM 41.4053 -88.5344 49° Northeast 270 311 6,900 -1,140 Descending Chicago Center
07:16PM 41.4431 -88.4589 56° Northeast 250 288 6,000 -780 Descending Chicago Center
07:17PM 41.4778 -88.3567 66° East 250 288 5,400 -540 Descending Chicago Center
07:18PM 41.5069 -88.2714 65° Northeast 251 289 5,000 -240 Descending Chicago Center
07:19PM 41.5364 -88.1875 65° Northeast 249 287 5,000  Level Chicago Center
07:20PM 41.5664 -88.1031 65° Northeast 250 288 5,000  Level Chicago Center
07:21PM 41.5950 -88.0169 66° East 252 290 5,000 -240 Level Chicago Center
07:22PM 41.6297 -87.9483 56° Northeast 239 275 4,600 -720 Descending Chicago Center
07:23PM 41.6742 -87.8914 44° Northeast 227 261 3,600 -1,260 Descending Chicago Center
07:23PM 41.7000 -87.8667 36° Northeast 213 245 2,900 -1,260 Descending Chicago TRACON
07:24PM 41.7333 -87.8167 48° Northeast 170 196 1,900 -900 Descending Chicago TRACON
07:25PM 41.7667 -87.7833 37° Northeast 124 143 1,300 -720 Descending Chicago TRACON
07:28PM 41.7833 -87.7500 North  Level FlightAware Approximate